AirNav   Everest Fuels
 
 955 users online  

1FL4 VRS, Inc. Heliport
St. Petersburg, Florida, USA


FAA INFORMATION EFFECTIVE 05 DECEMBER 2019

Location

FAA Identifier: 1FL4
Lat/Long: 27-48-48.7800N 082-40-56.0400W
27-48.813000N 082-40.934000W
27.8135500,-82.6822333
(estimated)
Elevation: 43 ft. / 13 m (estimated)
From city: 4 miles NW of ST. PETERSBURG, FL
Time zone: UTC -5 (UTC -4 during Daylight Saving Time)
Zip code: 33714

Heliport Operations

Heliport use: Private use. Permission required prior to landing
Activation date: 08/2018
Control tower: no
ARTCC: MIAMI CENTER
FSS: SAINT PETERSBURG FLIGHT SERVICE STATION
Attendance: 
Wind indicator: yes
Segmented circle: no

Heliport Communications

WX ASOS at SPG (4 nm SE): 118.875 (727-821-4334)
WX ASOS at PIE (6 nm N): PHONE 727-531-3456
WX AWOS-3P at CLW (11 nm NW): 119.225 (727-449-2184)
WX ASOS at TPA (13 nm NE): PHONE 813-873-7228
WX AWOS-3 at TPF (14 nm NE): 118.925 (813-251-6824)

Nearby radio navigation aids

VOR radial/distance  VOR name  Freq  Var
PIEr184/5.7ST PETERSBURG VORTAC116.4005W
SRQr351/25.2SARASOTA VOR/DME117.0005W
LALr253/36.9LAKELAND VORTAC116.0001E

 
NDB name  Hdg/Dist  Freq  Var  ID
CAPOK179/11.036005WPI .--. ..

Heliport Services

Runway Information

Helipad H1

Dimensions: 60 x 70 ft. / 18 x 21 m
Surface: concrete, in fair condition
Elevation: 43.0 ft.
Traffic pattern: leftleft

Heliport Ownership and Management from official FAA records

Ownership: Privately-owned
Owner: VEHICLE RECOVERY SERVICE, INC.
WAYNE PARKER/MICHELLE MULLINS, 4550 35TH ST. NORTH
ST PETERSBURG, FL 33714
Phone 727-600-9011
Manager: MICHELLE MULLINS
4550 35TH ST NORTH
ST PETERSBURG, FL 33714
Phone 727-600-9011

Heliport Operational Statistics

Aircraft based on the field: 1
Helicopters: 1
    

Additional Remarks

OWNER DESIRES ARPT BE CHARTED.

Instrument Procedures

There are no published instrument procedures at 1FL4.

Some nearby airports with instrument procedures:

KSPG - Albert Whitted Airport (4 nm SE)
KPIE - St Pete-Clearwater International Airport (6 nm N)
KMCF - MacDill Air Force Base (9 nm E)
KCLW - Clearwater Air Park (11 nm NW)
KTPA - Tampa International Airport (13 nm NE)
KTPF - Peter O Knight Airport (14 nm NE)
 
Loc | Ops | Rwys | IFR | FBO | Links
Com | Nav | Svcs | Stats | Notes
Aerial photo
No photo
 
Airport distance calculator
Flying to VRS, Inc. Heliport? Find the distance to fly.

From to 1FL4

Sunrise and sunset
Times for 12-Dec-2019
 Local
(UTC-5)
 Zulu
(UTC)
Morning civil twilight06:4811:48
Sunrise07:1312:13
Sunset17:3622:36
Evening civil twilight18:0123:01

Current date and time
Zulu (UTC)  12-Dec-2019 23:35:13
Local (UTC-5)  12-Dec-2019 18:35:13
 
METAR
KSPG 
4nm SE 
122253Z 05011KT 10SM BKN023 OVC095 22/19 A3013 RMK AO2 SLP203 T02170194
KPIE 
6nm N 
122253Z 07010KT 10SM SCT017 BKN070 OVC095 23/19 A3014 RMK AO2 RAB19E29 SLP207 P0000 T02280194
KMCF 
9nm E 
122316Z AUTO 09012KT 10SM BKN018 BKN024 22/19 A3014 RMK AO2 SLP209 FZRANO $
KCLW 
11nm NW 
122315Z AUTO 08007KT 10SM SCT016 BKN090 21/19 A3015 RMK AO2
KTPA 
12nm NE 
122253Z 06010G16KT 10SM -DZ BKN015 BKN075 OVC100 22/19 A3015 RMK AO2 DZB46 SLP210 CIG 012V018 P0000 T02220189
KTPF 
14nm NE 
122315Z AUTO 08010KT 10SM OVC015 22/21 A3015 RMK AO2
TAF
KPIE 
6nm N 
122112Z 1221/1318 08009G15KT P6SM VCSH SCT015 SCT020 OVC100 FM130000 07007KT P6SM BKN025 OVC100 FM131500 17009KT P6SM VCSH OVC100
KMCF 
9nm E 
121700Z 1217/1323 08012G18KT 9999 BKN020 BKN200 QNH3021INS BECMG 1303/1304 09009KT 9999 BKN008 QNH3005INS BECMG 1307/1308 10009KT 9999 SCT008 BKN050 QNH3002INS TX26/1218Z TN19/1311Z
KTPA 
12nm NE 
122107Z 1221/1324 08008G15KT P6SM VCSH SCT015 SCT025 OVC040 FM130000 09005KT P6SM BKN025 OVC100 FM131500 17008KT P6SM VCSH OVC100
NOTAMs
Click for the latest NOTAMs
NOTAMs are issued by the DoD/FAA and will open in a separate window not controlled by AirNav.

 

 
 

Would you like to see your business listed on this page?

 If your business provides an interesting product or service to pilots, flight crews, aircraft, or users of the VRS, Inc. Heliport, you should consider listing it here.  To start the listing process, click on the button below
 
Add a business
 

Other Pages about VRS, Inc. Heliport

Update a link
 
Copyright © AirNav, LLC. All rights reserved. Privacy Policy  Contact